Terminal Aerodrome Forecast
Issued by NWS

Home | Current Version | Previous Version | Text Only | Print | Product List | Glossary On
Versions: 1 2 3 4 5 6 7 8 9 10 11 12 13 14 15 16 17 18 19 20 21 22 23
000
FTUS41 KPBZ 271137
TAFZZV
TAF
KZZV 271137Z 2712/2812 22004KT P6SM BKN015
     FM271400 21010KT P6SM BKN060
     FM280100 22006KT 6SM -RA VCTS OVC040CB
     FM280600 VRB04KT P6SM BKN080=

USA.gov is the U.S. government's official web portal to all federal, state and local government web resources and services.